sensor_id;sensor_type;location;lat;lon;timestamp;P1;durP1;ratioP1;P2;durP2;ratioP2
70780;SDS011;59514;48.810;2.134;2023-04-24T00:02:08;3.92;;;2.15;;
70780;SDS011;59514;48.810;2.134;2023-04-24T00:05:32;4.65;;;2.40;;
70780;SDS011;59514;48.810;2.134;2023-04-24T00:08:59;2.40;;;2.03;;
70780;SDS011;59514;48.810;2.134;2023-04-24T00:12:24;4.28;;;2.42;;
70780;SDS011;59514;48.810;2.134;2023-04-24T00:15:48;2.63;;;2.22;;
70780;SDS011;59514;48.810;2.134;2023-04-24T00:19:12;5.30;;;2.10;;
70780;SDS011;59514;48.810;2.134;2023-04-24T00:22:36;3.97;;;2.22;;
70780;SDS011;59514;48.810;2.134;2023-04-24T00:26:00;2.97;;;1.90;;
70780;SDS011;59514;48.810;2.134;2023-04-24T00:29:25;3.00;;;2.30;;
70780;SDS011;59514;48.810;2.134;2023-04-24T00:32:49;3.45;;;2.00;;
70780;SDS011;59514;48.810;2.134;2023-04-24T00:36:13;4.05;;;2.10;;
70780;SDS011;59514;48.810;2.134;2023-04-24T00:39:37;4.40;;;2.17;;
70780;SDS011;59514;48.810;2.134;2023-04-24T00:43:01;5.90;;;2.25;;
70780;SDS011;59514;48.810;2.134;2023-04-24T00:46:24;3.72;;;2.15;;
70780;SDS011;59514;48.810;2.134;2023-04-24T00:49:49;4.35;;;2.20;;
70780;SDS011;59514;48.810;2.134;2023-04-24T00:53:12;3.03;;;2.22;;
70780;SDS011;59514;48.810;2.134;2023-04-24T00:56:37;4.35;;;2.28;;
70780;SDS011;59514;48.810;2.134;2023-04-24T01:00:02;13.85;;;2.70;;
70780;SDS011;59514;48.810;2.134;2023-04-24T01:03:28;6.80;;;2.85;;
70780;SDS011;59514;48.810;2.134;2023-04-24T01:06:53;2.88;;;2.13;;
70780;SDS011;59514;48.810;2.134;2023-04-24T01:10:18;2.65;;;2.03;;
70780;SDS011;59514;48.810;2.134;2023-04-24T01:13:42;3.47;;;2.00;;
70780;SDS011;59514;48.810;2.134;2023-04-24T01:17:07;6.05;;;2.40;;
70780;SDS011;59514;48.810;2.134;2023-04-24T01:20:31;2.90;;;1.98;;
70780;SDS011;59514;48.810;2.134;2023-04-24T01:23:55;6.30;;;2.47;;
70780;SDS011;59514;48.810;2.134;2023-04-24T01:27:19;5.10;;;2.60;;
70780;SDS011;59514;48.810;2.134;2023-04-24T01:30:43;5.47;;;2.30;;
70780;SDS011;59514;48.810;2.134;2023-04-24T01:34:07;2.80;;;1.90;;
70780;SDS011;59514;48.810;2.134;2023-04-24T01:37:32;4.57;;;2.00;;
70780;SDS011;59514;48.810;2.134;2023-04-24T01:40:55;3.35;;;1.92;;
70780;SDS011;59514;48.810;2.134;2023-04-24T01:44:20;2.90;;;2.08;;
70780;SDS011;59514;48.810;2.134;2023-04-24T01:47:44;2.80;;;1.80;;
70780;SDS011;59514;48.810;2.134;2023-04-24T01:51:09;3.55;;;2.13;;
70780;SDS011;59514;48.810;2.134;2023-04-24T01:54:33;5.80;;;2.03;;
70780;SDS011;59514;48.810;2.134;2023-04-24T01:57:58;2.80;;;1.92;;
70780;SDS011;59514;48.810;2.134;2023-04-24T02:01:24;4.05;;;2.00;;
70780;SDS011;59514;48.810;2.134;2023-04-24T02:04:55;3.72;;;2.13;;
70780;SDS011;59514;48.810;2.134;2023-04-24T02:08:19;3.53;;;1.98;;
70780;SDS011;59514;48.810;2.134;2023-04-24T02:11:43;3.22;;;2.53;;
70780;SDS011;59514;48.810;2.134;2023-04-24T02:15:07;8.48;;;2.40;;
70780;SDS011;59514;48.810;2.134;2023-04-24T02:18:30;4.57;;;2.15;;
70780;SDS011;59514;48.810;2.134;2023-04-24T02:21:54;3.65;;;2.35;;
70780;SDS011;59514;48.810;2.134;2023-04-24T02:25:18;2.67;;;1.73;;
70780;SDS011;59514;48.810;2.134;2023-04-24T02:28:43;3.85;;;2.22;;
70780;SDS011;59514;48.810;2.134;2023-04-24T02:32:07;5.45;;;1.83;;
70780;SDS011;59514;48.810;2.134;2023-04-24T02:35:31;3.10;;;2.30;;
70780;SDS011;59514;48.810;2.134;2023-04-24T02:38:55;3.40;;;1.85;;
70780;SDS011;59514;48.810;2.134;2023-04-24T02:42:19;2.03;;;1.55;;
70780;SDS011;59514;48.810;2.134;2023-04-24T02:45:43;3.75;;;2.00;;
70780;SDS011;59514;48.810;2.134;2023-04-24T02:49:06;5.95;;;2.00;;
70780;SDS011;59514;48.810;2.134;2023-04-24T02:52:31;3.75;;;2.20;;
70780;SDS011;59514;48.810;2.134;2023-04-24T02:55:55;4.65;;;2.03;;
70780;SDS011;59514;48.810;2.134;2023-04-24T02:59:20;3.90;;;2.30;;
70780;SDS011;59514;48.810;2.134;2023-04-24T03:02:43;3.42;;;2.10;;
70780;SDS011;59514;48.810;2.134;2023-04-24T03:06:07;3.72;;;2.20;;
70780;SDS011;59514;48.810;2.134;2023-04-24T03:09:31;3.15;;;1.73;;
70780;SDS011;59514;48.810;2.134;2023-04-24T03:12:55;3.45;;;2.10;;
70780;SDS011;59514;48.810;2.134;2023-04-24T03:16:19;1.90;;;1.63;;
70780;SDS011;59514;48.810;2.134;2023-04-24T03:19:43;3.65;;;1.70;;
70780;SDS011;59514;48.810;2.134;2023-04-24T03:23:07;2.92;;;2.13;;
70780;SDS011;59514;48.810;2.134;2023-04-24T03:26:32;3.60;;;2.20;;
70780;SDS011;59514;48.810;2.134;2023-04-24T03:29:55;4.60;;;2.17;;
70780;SDS011;59514;48.810;2.134;2023-04-24T03:33:19;2.33;;;2.13;;
70780;SDS011;59514;48.810;2.134;2023-04-24T03:36:43;4.03;;;1.80;;
70780;SDS011;59514;48.810;2.134;2023-04-24T03:40:07;3.20;;;1.55;;
70780;SDS011;59514;48.810;2.134;2023-04-24T03:43:31;2.53;;;1.80;;
70780;SDS011;59514;48.810;2.134;2023-04-24T03:46:55;2.97;;;2.00;;
70780;SDS011;59514;48.810;2.134;2023-04-24T03:50:19;3.42;;;2.10;;
70780;SDS011;59514;48.810;2.134;2023-04-24T03:53:43;2.15;;;1.80;;
70780;SDS011;59514;48.810;2.134;2023-04-24T03:57:06;3.15;;;2.28;;
70780;SDS011;59514;48.810;2.134;2023-04-24T04:00:30;4.57;;;2.25;;
70780;SDS011;59514;48.810;2.134;2023-04-24T04:03:55;6.25;;;2.33;;
70780;SDS011;59514;48.810;2.134;2023-04-24T04:07:19;3.90;;;2.03;;
70780;SDS011;59514;48.810;2.134;2023-04-24T04:10:43;4.78;;;2.08;;
70780;SDS011;59514;48.810;2.134;2023-04-24T04:14:07;3.78;;;2.35;;
70780;SDS011;59514;48.810;2.134;2023-04-24T04:17:32;5.30;;;2.00;;
70780;SDS011;59514;48.810;2.134;2023-04-24T04:20:56;2.25;;;2.05;;
70780;SDS011;59514;48.810;2.134;2023-04-24T04:24:21;3.25;;;2.03;;
70780;SDS011;59514;48.810;2.134;2023-04-24T04:27:45;4.25;;;2.15;;
70780;SDS011;59514;48.810;2.134;2023-04-24T04:31:09;4.10;;;2.30;;
70780;SDS011;59514;48.810;2.134;2023-04-24T04:34:33;3.22;;;2.13;;
70780;SDS011;59514;48.810;2.134;2023-04-24T04:37:57;5.45;;;2.45;;
70780;SDS011;59514;48.810;2.134;2023-04-24T04:41:21;3.70;;;2.28;;
70780;SDS011;59514;48.810;2.134;2023-04-24T04:44:45;4.45;;;2.30;;
70780;SDS011;59514;48.810;2.134;2023-04-24T04:48:09;4.05;;;2.67;;
70780;SDS011;59514;48.810;2.134;2023-04-24T04:51:34;5.88;;;3.05;;
70780;SDS011;59514;48.810;2.134;2023-04-24T04:54:58;4.75;;;2.30;;
70780;SDS011;59514;48.810;2.134;2023-04-24T04:58:22;4.55;;;2.40;;
70780;SDS011;59514;48.810;2.134;2023-04-24T05:01:45;3.92;;;2.35;;
70780;SDS011;59514;48.810;2.134;2023-04-24T05:05:09;8.07;;;2.80;;
70780;SDS011;59514;48.810;2.134;2023-04-24T05:08:33;5.60;;;3.10;;
70780;SDS011;59514;48.810;2.134;2023-04-24T05:11:57;3.60;;;2.40;;
70780;SDS011;59514;48.810;2.134;2023-04-24T05:15:21;2.70;;;2.45;;
70780;SDS011;59514;48.810;2.134;2023-04-24T05:18:45;3.95;;;3.05;;
70780;SDS011;59514;48.810;2.134;2023-04-24T05:22:09;3.38;;;2.55;;
70780;SDS011;59514;48.810;2.134;2023-04-24T05:25:32;3.55;;;2.83;;
70780;SDS011;59514;48.810;2.134;2023-04-24T05:28:56;7.70;;;3.40;;
70780;SDS011;59514;48.810;2.134;2023-04-24T05:32:20;4.22;;;3.10;;
70780;SDS011;59514;48.810;2.134;2023-04-24T05:35:44;5.10;;;2.85;;
70780;SDS011;59514;48.810;2.134;2023-04-24T05:39:08;4.93;;;3.40;;
70780;SDS011;59514;48.810;2.134;2023-04-24T05:42:33;3.67;;;2.50;;
70780;SDS011;59514;48.810;2.134;2023-04-24T05:45:57;3.97;;;3.08;;
70780;SDS011;59514;48.810;2.134;2023-04-24T05:49:21;4.30;;;3.08;;
70780;SDS011;59514;48.810;2.134;2023-04-24T05:52:45;6.57;;;3.78;;
70780;SDS011;59514;48.810;2.134;2023-04-24T05:56:09;4.13;;;3.28;;
70780;SDS011;59514;48.810;2.134;2023-04-24T05:59:33;5.28;;;3.80;;
70780;SDS011;59514;48.810;2.134;2023-04-24T06:02:21;6.25;;;3.95;;
70780;SDS011;59514;48.810;2.134;2023-04-24T06:05:45;6.05;;;3.75;;
70780;SDS011;59514;48.810;2.134;2023-04-24T06:09:08;4.18;;;3.58;;
70780;SDS011;59514;48.810;2.134;2023-04-24T06:12:32;4.15;;;3.53;;
70780;SDS011;59514;48.810;2.134;2023-04-24T06:15:56;6.15;;;4.03;;
70780;SDS011;59514;48.810;2.134;2023-04-24T06:19:20;4.47;;;4.00;;
70780;SDS011;59514;48.810;2.134;2023-04-24T06:22:44;5.55;;;4.25;;
70780;SDS011;59514;48.810;2.134;2023-04-24T06:26:08;4.85;;;4.43;;
70780;SDS011;59514;48.810;2.134;2023-04-24T06:29:32;6.55;;;4.75;;
70780;SDS011;59514;48.810;2.134;2023-04-24T06:32:56;6.47;;;4.57;;
70780;SDS011;59514;48.810;2.134;2023-04-24T06:36:20;5.43;;;4.45;;
70780;SDS011;59514;48.810;2.134;2023-04-24T06:40:31;6.65;;;4.88;;
70780;SDS011;59514;48.810;2.134;2023-04-24T06:42:56;5.53;;;4.70;;
70780;SDS011;59514;48.810;2.134;2023-04-24T06:45:23;7.72;;;4.65;;
70780;SDS011;59514;48.810;2.134;2023-04-24T06:47:48;5.10;;;4.43;;
70780;SDS011;59514;48.810;2.134;2023-04-24T06:50:13;5.63;;;4.70;;
70780;SDS011;59514;48.810;2.134;2023-04-24T06:52:40;7.88;;;5.82;;
70780;SDS011;59514;48.810;2.134;2023-04-24T06:55:05;5.90;;;5.20;;
70780;SDS011;59514;48.810;2.134;2023-04-24T06:57:31;5.68;;;5.00;;
70780;SDS011;59514;48.810;2.134;2023-04-24T06:59:56;6.28;;;4.93;;
70780;SDS011;59514;48.810;2.134;2023-04-24T07:02:21;6.23;;;4.53;;
70780;SDS011;59514;48.810;2.134;2023-04-24T07:04:47;6.28;;;5.35;;
70780;SDS011;59514;48.810;2.134;2023-04-24T07:07:12;7.80;;;5.13;;
70780;SDS011;59514;48.810;2.134;2023-04-24T07:09:39;8.88;;;5.00;;
70780;SDS011;59514;48.810;2.134;2023-04-24T07:12:05;6.45;;;5.38;;
70780;SDS011;59514;48.810;2.134;2023-04-24T07:14:32;6.82;;;5.35;;
70780;SDS011;59514;48.810;2.134;2023-04-24T07:16:57;8.07;;;5.33;;
70780;SDS011;59514;48.810;2.134;2023-04-24T07:19:22;5.30;;;4.80;;
70780;SDS011;59514;48.810;2.134;2023-04-24T07:21:47;7.37;;;5.33;;
70780;SDS011;59514;48.810;2.134;2023-04-24T07:24:13;5.90;;;4.67;;
70780;SDS011;59514;48.810;2.134;2023-04-24T07:26:38;9.77;;;5.20;;
70780;SDS011;59514;48.810;2.134;2023-04-24T07:29:04;6.95;;;6.18;;
70780;SDS011;59514;48.810;2.134;2023-04-24T07:31:30;9.02;;;6.05;;
70780;SDS011;59514;48.810;2.134;2023-04-24T07:33:55;9.07;;;6.20;;
70780;SDS011;59514;48.810;2.134;2023-04-24T07:36:22;7.57;;;6.43;;
70780;SDS011;59514;48.810;2.134;2023-04-24T07:38:49;8.85;;;6.50;;
70780;SDS011;59514;48.810;2.134;2023-04-24T07:41:14;9.65;;;5.95;;
70780;SDS011;59514;48.810;2.134;2023-04-24T07:43:39;6.55;;;5.55;;
70780;SDS011;59514;48.810;2.134;2023-04-24T07:46:05;7.15;;;6.10;;
70780;SDS011;59514;48.810;2.134;2023-04-24T07:48:30;6.05;;;5.45;;
70780;SDS011;59514;48.810;2.134;2023-04-24T07:50:56;8.38;;;6.80;;
70780;SDS011;59514;48.810;2.134;2023-04-24T07:53:21;8.30;;;6.43;;
70780;SDS011;59514;48.810;2.134;2023-04-24T07:55:46;8.33;;;6.33;;
70780;SDS011;59514;48.810;2.134;2023-04-24T07:58:11;9.47;;;6.83;;
70780;SDS011;59514;48.810;2.134;2023-04-24T08:00:36;8.93;;;6.07;;
70780;SDS011;59514;48.810;2.134;2023-04-24T08:03:02;7.83;;;7.00;;
70780;SDS011;59514;48.810;2.134;2023-04-24T08:05:27;6.55;;;5.95;;
70780;SDS011;59514;48.810;2.134;2023-04-24T08:07:53;6.80;;;6.03;;
70780;SDS011;59514;48.810;2.134;2023-04-24T08:10:19;6.70;;;5.82;;
70780;SDS011;59514;48.810;2.134;2023-04-24T08:12:45;8.43;;;6.57;;
70780;SDS011;59514;48.810;2.134;2023-04-24T08:15:10;8.17;;;6.13;;
70780;SDS011;59514;48.810;2.134;2023-04-24T08:17:35;8.10;;;6.70;;
70780;SDS011;59514;48.810;2.134;2023-04-24T08:20:01;11.43;;;6.90;;
70780;SDS011;59514;48.810;2.134;2023-04-24T08:22:29;11.10;;;7.05;;
70780;SDS011;59514;48.810;2.134;2023-04-24T08:24:54;9.18;;;6.15;;
70780;SDS011;59514;48.810;2.134;2023-04-24T08:27:19;9.00;;;6.75;;
70780;SDS011;59514;48.810;2.134;2023-04-24T08:29:44;9.38;;;6.43;;
70780;SDS011;59514;48.810;2.134;2023-04-24T08:32:10;7.20;;;6.50;;
70780;SDS011;59514;48.810;2.134;2023-04-24T08:34:35;8.43;;;6.60;;
70780;SDS011;59514;48.810;2.134;2023-04-24T08:37:00;7.43;;;6.53;;
70780;SDS011;59514;48.810;2.134;2023-04-24T08:39:25;8.75;;;6.55;;
70780;SDS011;59514;48.810;2.134;2023-04-24T08:41:51;7.93;;;6.27;;
70780;SDS011;59514;48.810;2.134;2023-04-24T08:44:17;7.97;;;5.78;;
70780;SDS011;59514;48.810;2.134;2023-04-24T08:46:43;6.72;;;6.13;;
70780;SDS011;59514;48.810;2.134;2023-04-24T08:49:09;6.93;;;6.22;;
70780;SDS011;59514;48.810;2.134;2023-04-24T08:51:35;6.60;;;5.90;;
70780;SDS011;59514;48.810;2.134;2023-04-24T08:54:01;6.25;;;5.20;;
70780;SDS011;59514;48.810;2.134;2023-04-24T08:56:28;6.72;;;5.85;;
70780;SDS011;59514;48.810;2.134;2023-04-24T08:58:55;8.43;;;6.72;;
70780;SDS011;59514;48.810;2.134;2023-04-24T09:01:21;6.82;;;5.97;;
70780;SDS011;59514;48.810;2.134;2023-04-24T09:03:48;6.80;;;6.10;;
70780;SDS011;59514;48.810;2.134;2023-04-24T09:06:13;6.53;;;5.93;;
70780;SDS011;59514;48.810;2.134;2023-04-24T09:08:39;6.85;;;6.25;;
70780;SDS011;59514;48.810;2.134;2023-04-24T09:11:06;6.00;;;5.40;;
70780;SDS011;59514;48.810;2.134;2023-04-24T09:13:31;6.10;;;5.50;;
70780;SDS011;59514;48.810;2.134;2023-04-24T09:15:56;6.57;;;5.93;;
70780;SDS011;59514;48.810;2.134;2023-04-24T09:18:22;6.35;;;5.75;;
70780;SDS011;59514;48.810;2.134;2023-04-24T09:23:42;6.10;;;5.60;;
70780;SDS011;59514;48.810;2.134;2023-04-24T09:26:08;7.07;;;6.10;;
70780;SDS011;59514;48.810;2.134;2023-04-24T09:28:35;6.63;;;6.03;;
70780;SDS011;59514;48.810;2.134;2023-04-24T09:31:13;6.82;;;6.15;;
70780;SDS011;59514;48.810;2.134;2023-04-24T09:33:40;6.60;;;5.90;;
70780;SDS011;59514;48.810;2.134;2023-04-24T09:36:17;6.55;;;5.95;;
70780;SDS011;59514;48.810;2.134;2023-04-24T09:38:43;9.13;;;6.00;;
70780;SDS011;59514;48.810;2.134;2023-04-24T09:41:08;5.60;;;5.07;;
70780;SDS011;59514;48.810;2.134;2023-04-24T09:43:38;6.20;;;5.43;;
70780;SDS011;59514;48.810;2.134;2023-04-24T09:46:06;6.25;;;5.55;;
70780;SDS011;59514;48.810;2.134;2023-04-24T09:48:32;7.65;;;6.63;;
70780;SDS011;59514;48.810;2.134;2023-04-24T09:50:58;6.60;;;6.00;;
70780;SDS011;59514;48.810;2.134;2023-04-24T09:53:24;7.47;;;6.28;;
70780;SDS011;59514;48.810;2.134;2023-04-24T09:55:49;6.32;;;5.68;;
70780;SDS011;59514;48.810;2.134;2023-04-24T09:58:15;5.88;;;5.38;;
70780;SDS011;59514;48.810;2.134;2023-04-24T10:00:40;6.53;;;5.53;;
70780;SDS011;59514;48.810;2.134;2023-04-24T10:03:06;6.70;;;5.95;;
70780;SDS011;59514;48.810;2.134;2023-04-24T10:08:06;5.40;;;4.97;;
70780;SDS011;59514;48.810;2.134;2023-04-24T10:10:32;7.03;;;5.18;;
70780;SDS011;59514;48.810;2.134;2023-04-24T10:12:57;5.50;;;5.00;;
70780;SDS011;59514;48.810;2.134;2023-04-24T10:15:24;5.82;;;5.32;;
70780;SDS011;59514;48.810;2.134;2023-04-24T10:17:50;6.18;;;4.50;;
70780;SDS011;59514;48.810;2.134;2023-04-24T10:20:22;6.57;;;5.20;;
70780;SDS011;59514;48.810;2.134;2023-04-24T10:22:47;4.45;;;4.05;;
70780;SDS011;59514;48.810;2.134;2023-04-24T10:25:14;4.28;;;3.88;;
70780;SDS011;59514;48.810;2.134;2023-04-24T10:27:41;4.70;;;4.30;;
70780;SDS011;59514;48.810;2.134;2023-04-24T10:30:06;4.72;;;4.30;;
70780;SDS011;59514;48.810;2.134;2023-04-24T10:32:32;4.38;;;3.97;;
70780;SDS011;59514;48.810;2.134;2023-04-24T10:34:57;4.77;;;4.37;;
70780;SDS011;59514;48.810;2.134;2023-04-24T10:37:23;5.07;;;4.30;;
70780;SDS011;59514;48.810;2.134;2023-04-24T10:39:49;4.63;;;4.18;;
70780;SDS011;59514;48.810;2.134;2023-04-24T10:42:16;5.72;;;4.65;;
70780;SDS011;59514;48.810;2.134;2023-04-24T10:44:41;4.97;;;4.50;;
70780;SDS011;59514;48.810;2.134;2023-04-24T10:47:07;7.25;;;5.07;;
70780;SDS011;59514;48.810;2.134;2023-04-24T10:49:37;4.32;;;3.92;;
70780;SDS011;59514;48.810;2.134;2023-04-24T10:52:03;5.45;;;4.95;;
70780;SDS011;59514;48.810;2.134;2023-04-24T10:54:44;5.47;;;4.30;;
70780;SDS011;59514;48.810;2.134;2023-04-24T10:59:51;6.13;;;4.57;;
70780;SDS011;59514;48.810;2.134;2023-04-24T11:02:17;5.10;;;4.60;;
70780;SDS011;59514;48.810;2.134;2023-04-24T11:04:42;5.75;;;5.20;;
70780;SDS011;59514;48.810;2.134;2023-04-24T11:07:08;4.43;;;4.07;;
70780;SDS011;59514;48.810;2.134;2023-04-24T11:09:34;5.00;;;4.60;;
70780;SDS011;59514;48.810;2.134;2023-04-24T11:12:07;5.45;;;4.32;;
70780;SDS011;59514;48.810;2.134;2023-04-24T11:17:35;4.60;;;4.20;;
70780;SDS011;59514;48.810;2.134;2023-04-24T11:20:03;4.75;;;4.25;;
70780;SDS011;59514;48.810;2.134;2023-04-24T11:22:30;4.00;;;3.70;;
70780;SDS011;59514;48.810;2.134;2023-04-24T11:24:58;3.92;;;3.38;;
70780;SDS011;59514;48.810;2.134;2023-04-24T11:27:24;3.60;;;3.30;;
70780;SDS011;59514;48.810;2.134;2023-04-24T11:34:48;3.40;;;3.10;;
70780;SDS011;59514;48.810;2.134;2023-04-24T11:37:14;3.20;;;2.90;;
70780;SDS011;59514;48.810;2.134;2023-04-24T11:39:39;3.05;;;2.55;;
70780;SDS011;59514;48.810;2.134;2023-04-24T11:42:05;2.50;;;2.30;;
70780;SDS011;59514;48.810;2.134;2023-04-24T11:44:32;2.83;;;2.53;;
70780;SDS011;59514;48.810;2.134;2023-04-24T11:46:58;3.25;;;2.25;;
70780;SDS011;59514;48.810;2.134;2023-04-24T11:49:23;2.30;;;2.10;;
70780;SDS011;59514;48.810;2.134;2023-04-24T11:51:49;2.72;;;2.42;;
70780;SDS011;59514;48.810;2.134;2023-04-24T11:54:14;2.40;;;2.20;;
70780;SDS011;59514;48.810;2.134;2023-04-24T11:56:44;2.80;;;2.60;;
70780;SDS011;59514;48.810;2.134;2023-04-24T11:59:09;3.30;;;2.50;;
70780;SDS011;59514;48.810;2.134;2023-04-24T12:01:47;2.28;;;2.08;;
70780;SDS011;59514;48.810;2.134;2023-04-24T12:04:13;3.20;;;2.45;;
70780;SDS011;59514;48.810;2.134;2023-04-24T12:06:39;2.80;;;2.50;;
70780;SDS011;59514;48.810;2.134;2023-04-24T12:09:04;2.27;;;2.00;;
70780;SDS011;59514;48.810;2.134;2023-04-24T12:11:29;1.90;;;1.80;;
70780;SDS011;59514;48.810;2.134;2023-04-24T12:13:55;1.85;;;1.73;;
70780;SDS011;59514;48.810;2.134;2023-04-24T12:16:20;2.43;;;2.17;;
70780;SDS011;59514;48.810;2.134;2023-04-24T12:18:45;2.40;;;1.85;;
70780;SDS011;59514;48.810;2.134;2023-04-24T12:21:20;2.20;;;1.60;;
70780;SDS011;59514;48.810;2.134;2023-04-24T12:23:46;2.58;;;2.28;;
70780;SDS011;59514;48.810;2.134;2023-04-24T12:26:20;2.85;;;2.08;;
70780;SDS011;59514;48.810;2.134;2023-04-24T12:28:47;2.03;;;1.63;;
70780;SDS011;59514;48.810;2.134;2023-04-24T12:31:14;2.33;;;1.90;;
70780;SDS011;59514;48.810;2.134;2023-04-24T12:33:40;2.42;;;2.25;;
70780;SDS011;59514;48.810;2.134;2023-04-24T12:36:05;2.40;;;2.20;;
70780;SDS011;59514;48.810;2.134;2023-04-24T12:38:31;2.00;;;1.80;;
70780;SDS011;59514;48.810;2.134;2023-04-24T12:41:14;1.60;;;1.50;;
70780;SDS011;59514;48.810;2.134;2023-04-24T12:43:50;2.75;;;2.05;;
70780;SDS011;59514;48.810;2.134;2023-04-24T12:46:15;2.28;;;1.88;;
70780;SDS011;59514;48.810;2.134;2023-04-24T12:48:40;2.33;;;2.00;;
70780;SDS011;59514;48.810;2.134;2023-04-24T12:51:06;2.33;;;1.83;;
70780;SDS011;59514;48.810;2.134;2023-04-24T12:53:31;2.33;;;1.80;;
70780;SDS011;59514;48.810;2.134;2023-04-24T12:55:56;1.97;;;1.77;;
70780;SDS011;59514;48.810;2.134;2023-04-24T12:58:21;2.45;;;1.73;;
70780;SDS011;59514;48.810;2.134;2023-04-24T13:00:47;2.10;;;1.52;;
70780;SDS011;59514;48.810;2.134;2023-04-24T13:03:12;2.03;;;1.40;;
70780;SDS011;59514;48.810;2.134;2023-04-24T13:05:37;2.25;;;1.50;;
70780;SDS011;59514;48.810;2.134;2023-04-24T13:08:03;1.33;;;1.23;;
70780;SDS011;59514;48.810;2.134;2023-04-24T13:10:28;1.55;;;1.45;;
70780;SDS011;59514;48.810;2.134;2023-04-24T13:12:53;1.03;;;1.00;;
70780;SDS011;59514;48.810;2.134;2023-04-24T13:15:18;1.67;;;1.40;;
70780;SDS011;59514;48.810;2.134;2023-04-24T13:17:44;1.80;;;1.40;;
70780;SDS011;59514;48.810;2.134;2023-04-24T13:20:09;1.70;;;1.40;;
70780;SDS011;59514;48.810;2.134;2023-04-24T13:22:35;1.42;;;1.33;;
70780;SDS011;59514;48.810;2.134;2023-04-24T13:25:00;3.55;;;1.67;;
70780;SDS011;59514;48.810;2.134;2023-04-24T13:27:26;2.30;;;1.42;;
70780;SDS011;59514;48.810;2.134;2023-04-24T13:29:51;1.20;;;1.10;;
70780;SDS011;59514;48.810;2.134;2023-04-24T13:32:16;4.37;;;1.97;;
70780;SDS011;59514;48.810;2.134;2023-04-24T13:34:42;4.18;;;1.55;;
70780;SDS011;59514;48.810;2.134;2023-04-24T13:37:07;1.95;;;1.67;;
70780;SDS011;59514;48.810;2.134;2023-04-24T13:39:33;1.75;;;1.42;;
70780;SDS011;59514;48.810;2.134;2023-04-24T13:41:58;1.70;;;1.60;;
70780;SDS011;59514;48.810;2.134;2023-04-24T13:44:23;1.10;;;0.93;;
70780;SDS011;59514;48.810;2.134;2023-04-24T13:46:49;2.22;;;1.25;;
70780;SDS011;59514;48.810;2.134;2023-04-24T13:49:15;1.48;;;1.10;;
70780;SDS011;59514;48.810;2.134;2023-04-24T13:51:41;1.03;;;0.97;;
70780;SDS011;59514;48.810;2.134;2023-04-24T13:54:07;1.33;;;1.10;;
70780;SDS011;59514;48.810;2.134;2023-04-24T13:56:32;1.20;;;1.10;;
70780;SDS011;59514;48.810;2.134;2023-04-24T13:58:57;1.10;;;0.90;;
70780;SDS011;59514;48.810;2.134;2023-04-24T14:01:22;1.30;;;1.20;;
70780;SDS011;59514;48.810;2.134;2023-04-24T14:03:51;1.95;;;0.90;;
70780;SDS011;59514;48.810;2.134;2023-04-24T14:06:16;1.13;;;0.95;;
70780;SDS011;59514;48.810;2.134;2023-04-24T14:08:41;0.80;;;0.80;;
70780;SDS011;59514;48.810;2.134;2023-04-24T14:11:07;1.33;;;0.97;;
70780;SDS011;59514;48.810;2.134;2023-04-24T14:13:32;1.37;;;1.00;;
70780;SDS011;59514;48.810;2.134;2023-04-24T14:15:57;0.75;;;0.75;;
70780;SDS011;59514;48.810;2.134;2023-04-24T14:18:23;1.70;;;0.90;;
70780;SDS011;59514;48.810;2.134;2023-04-24T14:20:48;1.90;;;0.90;;
70780;SDS011;59514;48.810;2.134;2023-04-24T14:23:13;0.93;;;0.77;;
70780;SDS011;59514;48.810;2.134;2023-04-24T14:25:38;1.93;;;1.37;;
70780;SDS011;59514;48.810;2.134;2023-04-24T14:28:05;1.27;;;1.10;;
70780;SDS011;59514;48.810;2.134;2023-04-24T14:30:30;1.20;;;0.80;;
70780;SDS011;59514;48.810;2.134;2023-04-24T14:32:55;0.70;;;0.70;;
70780;SDS011;59514;48.810;2.134;2023-04-24T14:35:21;1.07;;;1.03;;
70780;SDS011;59514;48.810;2.134;2023-04-24T14:37:46;1.65;;;1.00;;
70780;SDS011;59514;48.810;2.134;2023-04-24T14:40:13;1.75;;;1.00;;
70780;SDS011;59514;48.810;2.134;2023-04-24T14:42:38;1.27;;;1.00;;
70780;SDS011;59514;48.810;2.134;2023-04-24T14:45:03;1.63;;;1.03;;
70780;SDS011;59514;48.810;2.134;2023-04-24T14:47:29;1.45;;;0.93;;
70780;SDS011;59514;48.810;2.134;2023-04-24T14:49:54;1.55;;;1.02;;
70780;SDS011;59514;48.810;2.134;2023-04-24T14:52:19;2.90;;;1.17;;
70780;SDS011;59514;48.810;2.134;2023-04-24T14:54:45;1.48;;;1.38;;
70780;SDS011;59514;48.810;2.134;2023-04-24T14:57:10;1.47;;;1.37;;
70780;SDS011;59514;48.810;2.134;2023-04-24T14:59:35;1.60;;;1.48;;
70780;SDS011;59514;48.810;2.134;2023-04-24T15:02:01;1.77;;;1.30;;
70780;SDS011;59514;48.810;2.134;2023-04-24T15:04:26;1.40;;;1.30;;
70780;SDS011;59514;48.810;2.134;2023-04-24T15:06:52;1.73;;;1.20;;
70780;SDS011;59514;48.810;2.134;2023-04-24T15:09:18;1.13;;;1.02;;
70780;SDS011;59514;48.810;2.134;2023-04-24T15:11:44;1.48;;;1.15;;
70780;SDS011;59514;48.810;2.134;2023-04-24T15:14:09;1.10;;;1.00;;
70780;SDS011;59514;48.810;2.134;2023-04-24T15:16:34;0.80;;;0.80;;
70780;SDS011;59514;48.810;2.134;2023-04-24T15:19:00;0.90;;;0.90;;
70780;SDS011;59514;48.810;2.134;2023-04-24T15:21:25;1.00;;;1.00;;
70780;SDS011;59514;48.810;2.134;2023-04-24T15:23:50;1.10;;;1.00;;
70780;SDS011;59514;48.810;2.134;2023-04-24T15:26:16;0.90;;;0.90;;
70780;SDS011;59514;48.810;2.134;2023-04-24T15:28:41;0.83;;;0.70;;
70780;SDS011;59514;48.810;2.134;2023-04-24T15:31:06;1.17;;;1.03;;
70780;SDS011;59514;48.810;2.134;2023-04-24T15:33:31;0.80;;;0.70;;
70780;SDS011;59514;48.810;2.134;2023-04-24T15:35:56;1.13;;;0.85;;
70780;SDS011;59514;48.810;2.134;2023-04-24T15:38:22;0.80;;;0.80;;
70780;SDS011;59514;48.810;2.134;2023-04-24T15:40:47;0.80;;;0.80;;
70780;SDS011;59514;48.810;2.134;2023-04-24T15:43:13;1.00;;;0.90;;
70780;SDS011;59514;48.810;2.134;2023-04-24T15:45:38;0.80;;;0.80;;
70780;SDS011;59514;48.810;2.134;2023-04-24T15:48:03;1.53;;;0.87;;
70780;SDS011;59514;48.810;2.134;2023-04-24T15:50:29;1.53;;;1.10;;
70780;SDS011;59514;48.810;2.134;2023-04-24T15:52:54;1.20;;;1.10;;
70780;SDS011;59514;48.810;2.134;2023-04-24T15:55:19;1.13;;;1.13;;
70780;SDS011;59514;48.810;2.134;2023-04-24T15:57:44;1.00;;;1.00;;
70780;SDS011;59514;48.810;2.134;2023-04-24T16:00:10;1.00;;;1.00;;
70780;SDS011;59514;48.810;2.134;2023-04-24T16:02:35;1.17;;;1.08;;
70780;SDS011;59514;48.810;2.134;2023-04-24T16:05:00;2.00;;;1.70;;
70780;SDS011;59514;48.810;2.134;2023-04-24T16:07:25;1.57;;;1.47;;
70780;SDS011;59514;48.810;2.134;2023-04-24T16:09:51;1.47;;;1.37;;
70780;SDS011;59514;48.810;2.134;2023-04-24T16:12:16;1.17;;;1.08;;
70780;SDS011;59514;48.810;2.134;2023-04-24T16:14:41;1.20;;;1.10;;
70780;SDS011;59514;48.810;2.134;2023-04-24T16:17:06;1.20;;;1.10;;
70780;SDS011;59514;48.810;2.134;2023-04-24T16:19:32;1.00;;;1.00;;
70780;SDS011;59514;48.810;2.134;2023-04-24T16:22:00;0.80;;;0.80;;
70780;SDS011;59514;48.810;2.134;2023-04-24T16:24:27;1.27;;;1.17;;
70780;SDS011;59514;48.810;2.134;2023-04-24T16:26:52;1.13;;;1.02;;
70780;SDS011;59514;48.810;2.134;2023-04-24T16:29:17;1.57;;;1.43;;
70780;SDS011;59514;48.810;2.134;2023-04-24T16:31:43;1.67;;;1.55;;
70780;SDS011;59514;48.810;2.134;2023-04-24T16:34:08;1.33;;;1.20;;
70780;SDS011;59514;48.810;2.134;2023-04-24T16:36:34;1.77;;;1.27;;
70780;SDS011;59514;48.810;2.134;2023-04-24T16:38:59;1.75;;;1.10;;
70780;SDS011;59514;48.810;2.134;2023-04-24T16:41:29;1.35;;;1.20;;
70780;SDS011;59514;48.810;2.134;2023-04-24T16:43:54;1.73;;;1.38;;
70780;SDS011;59514;48.810;2.134;2023-04-24T16:46:19;1.63;;;1.38;;
70780;SDS011;59514;48.810;2.134;2023-04-24T16:48:45;1.30;;;1.20;;
70780;SDS011;59514;48.810;2.134;2023-04-24T16:51:10;1.25;;;1.15;;